Date,TemperatureHighF,TemperatureAvgF,TemperatureLowF,DewpointHighF,DewpointAvgF,DewpointLowF,HumidityHigh,HumidityAvg,HumidityLow,PressureMaxIn,PressureMinIn,WindSpeedMaxMPH,WindSpeedAvgMPH,GustSpeedMaxMPH,PrecipitationSumIn
2013-1-1,15.0,6.4,-1.1,7.2,1.6,-4.3,87,81,69,30.34,30.22,6,0,6,0.00
2013-1-2,26.0,19.5,6.9,20.8,13.1,2.3,85,77,54,30.26,30.12,12,2,12,0.00
2013-1-3,25.5,21.9,12.8,20.8,17.9,9.1,88,84,81,30.29,30.11,15,4,15,0.00
2013-1-4,28.0,18.8,10.4,19.8,13.9,6.4,88,81,71,30.27,30.14,20,5,20,0.00
2013-1-5,34.5,25.6,12.1,32.5,22.7,9.7,95,89,76,30.30,29.92,13,3,13,0.00
2013-1-6,33.7,25.3,14.4,32.1,21.7,11.9,94,86,75,30.35,29.91,13,2,13,0.03
2013-1-7,38.4,26.3,10.1,27.8,20.4,7.8,91,79,61,30.34,30.10,19,4,19,0.01
2013-1-8,41.7,32.8,19.8,31.7,27.6,17.6,93,81,65,30.17,29.98,17,3,17,0.29
2013-1-9,39.4,33.4,23.3,32.2,27.1,20.0,89,78,64,30.51,29.96,26,7,26,0.24
2013-1-10,39.6,30.7,19.5,35.2,27.2,17.3,95,87,71,30.55,29.93,12,4,12,0.72
2013-1-11,49.5,42.3,36.5,48.3,41.2,35.2,100,96,90,29.93,29.64,15,4,16,0.11
2013-1-12,49.7,37.3,25.1,46.7,32.0,21.8,90,81,71,30.03,29.64,28,6,28,0.00
2013-1-13,25.1,19.1,13.7,22.2,13.9,7.2,89,80,74,30.27,29.92,12,2,12,0.00
2013-1-14,23.5,14.9,8.9,12.5,8.5,4.9,93,76,58,30.52,30.27,12,1,12,0.00
2013-1-15,30.4,19.3,10.2,18.2,13.1,7.4,93,78,54,30.50,30.16,12,1,12,0.00
2013-1-16,32.9,26.2,16.2,30.7,20.3,11.6,93,78,62,30.16,29.82,24,5,24,0.00
2013-1-17,28.7,19.6,13.0,19.2,10.4,5.9,83,68,49,30.47,30.11,12,1,12,0.00
2013-1-18,41.9,29.6,11.2,32.7,23.1,7.5,87,77,66,30.49,29.87,23,6,23,0.07
2013-1-19,43.7,36.7,18.7,35.5,29.4,9.9,87,75,44,29.95,29.67,36,7,36,0.02
2013-1-20,18.6,11.3,7.5,10.7,2.1,-0.1,77,66,56,30.35,29.96,20,2,20,0.00
2013-1-21,11.1,4.4,-2.5,4.3,-3.1,-10.3,82,71,62,30.38,30.20,15,2,15,0.00
2013-1-22,7.5,0.7,-7.5,-0.3,-7.2,-14.1,78,69,60,30.47,30.37,17,2,17,0.00
2013-1-23,17.8,11.0,1.1,13.2,5.0,-5.1,86,76,64,30.49,30.16,15,3,18,0.00
2013-1-24,18.3,9.3,0.3,10.3,1.1,-5.7,77,69,60,30.74,30.45,6,1,6,0.00
2013-1-25,24.9,19.5,15.1,17.9,13.3,6.4,86,77,59,30.44,30.00,16,2,16,0.00
2013-1-26,25.7,15.8,4.0,14.3,9.0,0.2,93,75,57,30.46,30.25,6,0,6,0.01
2013-1-27,33.3,27.7,23.1,32.0,22.9,13.7,95,82,67,30.42,29.91,12,2,12,0.00
2013-1-28,42.2,36.2,31.6,37.6,33.9,29.0,96,91,77,29.99,29.82,12,1,12,0.24
2013-1-29,57.2,44.4,35.6,56.4,43.4,34.6,100,96,93,29.84,29.48,15,2,15,1.87
2013-1-30,35.9,28.1,16.3,34.9,26.8,13.6,96,95,89,29.64,29.30,8,0,8,0.18
2013-1-31,16.6,10.9,2.1,13.8,6.4,-2.7,89,82,76,30.22,29.64,0,0,0,0.00
2013-2-1,6.8,1.9,-3.4,3.5,-3.5,-7.8,86,78,69,30.41,30.22,0,0,0,0.00
2013-2-2,12.6,7.2,-1.2,6.6,2.5,-5.1,88,81,66,30.24,30.11,0,0,0,0.00
2013-2-3,19.2,11.8,0.6,11.9,7.0,-2.8,97,81,67,30.12,30.03,14,2,14,0.00
2013-2-4,18.9,13.0,4.9,12.8,8.6,0.2,95,83,66,30.10,30.00,5,0,5,0.00
2013-2-5,26.8,17.4,-0.6,24.3,13.9,-3.9,93,86,77,30.18,29.85,15,2,15,0.00
2013-2-6,33.4,20.4,-0.2,29.7,15.3,-3.4,93,81,69,30.30,30.13,10,1,10,0.06
2013-2-7,33.4,31.5,21.5,32.0,29.5,19.9,96,92,86,30.16,29.93,5,0,5,0.00
2013-2-8,24.1,18.5,4.7,21.2,15.9,1.8,94,90,83,30.47,30.09,0,0,0,0.00
2013-2-9,28.2,19.1,7.0,24.9,16.5,4.4,93,90,87,30.48,30.15,12,1,12,0.00
2013-2-10,43.0,34.2,21.4,41.9,32.6,19.7,100,94,90,30.15,29.45,18,4,18,1.17
2013-2-11,39.0,31.2,26.3,36.3,26.8,21.6,90,83,79,30.02,29.45,31,11,31,0.03
2013-2-12,28.2,23.4,18.1,21.8,18.7,15.0,91,82,71,30.13,29.93,16,4,16,0.01
2013-2-13,38.9,26.5,16.2,31.0,22.8,14.3,94,86,70,29.93,29.75,12,2,12,0.08
2013-2-14,35.5,33.0,27.6,33.5,29.4,22.3,93,87,79,30.01,29.61,3,1,17,0.01
2013-2-15,28.6,20.5,12.9,25.5,12.7,5.8,89,72,56,30.25,30.01,12,1,12,0.01
2013-2-16,19.5,10.9,1.5,8.5,2.9,-3.1,92,70,54,30.28,30.20,10,1,10,0.00
2013-2-17,27.0,13.8,-2.4,15.1,4.7,-6.0,86,68,46,30.31,30.04,7,1,7,0.00
2013-2-18,47.3,35.2,24.6,40.2,28.9,14.9,95,78,66,30.03,29.46,17,3,17,0.42
2013-2-19,29.3,14.1,7.2,27.7,11.0,2.3,94,87,80,30.24,29.54,15,3,15,0.00
2013-2-20,21.1,11.4,4.9,13.2,6.0,0.3,87,79,68,30.47,30.24,8,1,8,0.04
2013-2-21,26.2,18.2,5.1,23.5,15.0,1.8,91,87,84,30.50,30.13,18,4,18,0.00
2013-2-22,30.4,27.0,24.1,28.9,25.4,22.0,100,93,87,30.13,29.81,13,4,16,0.00
2013-2-23,29.3,24.6,19.8,24.8,20.9,16.0,93,86,76,29.98,29.88,20,4,21,0.03
2013-2-24,38.0,24.5,14.9,27.9,19.6,12.2,91,82,64,30.20,29.98,6,1,6,0.12
2013-2-25,41.9,26.9,11.9,28.0,21.0,9.5,93,79,56,30.23,30.09,5,1,5,0.06
2013-2-26,33.6,31.9,28.5,30.4,28.2,25.7,94,86,78,30.08,29.64,20,4,20,0.01
2013-2-27,33.5,31.0,28.2,31.7,29.4,26.7,95,94,92,29.79,29.62,7,1,7,0.15
2013-2-28,33.5,30.3,24.5,30.2,26.7,19.6,94,86,78,30.16,29.79,12,2,12,0.07
2013-3-1,24.6,23.0,18.7,19.9,18.2,13.0,85,82,77,30.30,30.14,12,2,12,0.00
2013-3-2,26.0,17.1,3.2,16.8,11.0,-0.1,86,77,66,30.30,30.24,9,1,9,0.07
2013-3-3,29.5,12.3,-2.6,15.3,4.9,-6.0,88,73,49,30.24,30.16,7,0,7,0.07
2013-3-4,32.5,21.5,3.6,24.8,16.2,-0.2,88,80,65,30.22,30.10,15,4,15,0.01
2013-3-5,31.1,28.3,25.0,27.1,25.3,23.2,94,88,78,30.10,29.91,13,4,13,0.00
2013-3-6,32.4,28.7,25.4,28.0,25.6,22.9,92,88,82,30.35,30.10,9,1,9,0.24
2013-3-7,35.1,28.4,18.5,23.2,20.2,15.5,89,72,59,30.49,30.42,6,0,6,0.07
2013-3-8,41.9,27.6,11.5,29.1,21.9,9.1,92,80,58,30.53,30.34,12,1,12,0.00
2013-3-9,41.2,35.2,29.8,34.1,30.4,24.4,92,82,70,30.34,29.85,12,2,12,0.15
2013-3-10,41.3,38.9,35.5,40.2,37.6,33.4,96,95,92,29.85,29.64,14,2,14,0.90
2013-3-11,38.3,33.5,29.9,37.5,32.6,28.7,97,96,95,29.77,29.56,10,1,14,0.07
2013-3-12,33.2,28.5,25.3,28.9,25.0,21.3,100,87,69,30.03,29.77,20,3,20,0.04
2013-3-13,32.1,24.6,18.9,21.4,15.2,11.9,85,68,46,30.35,30.03,12,2,12,0.02
2013-3-14,36.2,25.5,14.0,27.0,19.0,10.2,91,77,56,30.36,30.12,10,1,10,0.00
2013-3-15,35.3,30.6,26.1,32.9,28.3,24.1,100,91,84,30.12,29.84,13,2,13,0.07
2013-3-16,32.4,27.6,23.0,26.9,22.7,19.2,92,82,69,30.18,29.84,12,2,12,0.00
2013-3-17,30.0,25.1,18.4,23.1,17.4,11.0,82,72,64,30.30,30.07,15,4,15,0.00
2013-3-18,33.0,28.2,18.5,31.5,25.0,13.0,94,88,77,30.07,29.61,24,7,24,0.12
2013-3-19,29.4,20.1,13.2,16.6,11.7,8.2,81,70,52,30.09,29.75,28,10,28,0.01
2013-3-20,21.2,14.7,8.6,10.7,5.8,1.5,77,68,59,30.14,30.07,24,3,24,0.00
2013-3-21,29.1,17.2,5.9,17.2,9.2,0.5,81,71,57,30.12,30.07,10,1,10,0.00
2013-3-22,34.5,21.1,8.0,20.4,13.4,4.9,88,73,50,30.14,30.07,5,0,5,0.00
2013-3-23,40.4,27.8,16.4,25.6,20.0,13.3,90,74,48,30.20,30.10,8,1,8,0.00
2013-3-24,34.5,31.2,28.9,30.0,26.1,22.2,91,81,72,30.11,29.79,15,3,15,0.01
2013-3-25,34.1,30.3,26.1,26.8,24.5,20.8,86,79,69,30.13,29.83,12,2,12,0.00
2013-3-26,41.1,34.4,29.8,30.8,26.9,24.4,83,74,63,30.25,30.13,9,1,9,0.00
2013-3-27,40.5,34.4,26.5,27.6,25.0,21.3,83,69,51,30.34,30.28,1,0,7,0.00
2013-3-28,45.7,32.9,21.6,29.5,23.2,19.1,93,70,44,30.38,30.33,7,0,7,0.00
2013-3-29,49.4,35.6,23.5,30.3,24.8,21.0,92,68,36,30.36,30.27,5,0,5,0.00
2013-3-30,54.1,41.5,27.7,40.9,32.5,22.5,90,71,51,30.27,29.83,16,2,16,0.01
2013-3-31,50.0,40.1,32.0,40.9,34.9,22.6,94,82,58,29.92,29.71,20,3,20,0.00
2013-4-1,36.7,30.9,26.5,22.6,18.4,14.7,78,60,48,30.23,29.92,13,2,13,0.00
2013-4-2,40.4,31.7,21.9,21.8,17.6,15.5,78,57,40,30.36,30.22,13,1,13,0.00
2013-4-3,46.4,33.2,19.5,23.2,18.5,7.3,89,58,29,30.51,30.32,9,1,9,0.00
2013-4-4,56.8,44.2,33.1,37.2,28.2,19.9,58,54,42,30.32,29.95,17,3,17,0.00
2013-4-5,51.2,45.5,38.8,36.5,31.1,24.0,67,57,43,30.25,30.03,12,1,12,0.00
2013-4-6,63.3,48.1,39.1,50.0,35.9,25.1,91,64,45,30.17,29.54,17,3,17,0.11
2013-4-7,53.2,43.6,36.3,49.5,36.5,31.3,90,77,57,29.99,29.54,17,3,17,0.01
2013-4-8,49.4,42.0,36.2,45.5,38.7,30.7,100,88,77,30.02,29.61,15,3,15,0.82
2013-4-9,42.2,38.5,36.6,40.6,37.4,35.5,100,96,94,30.05,29.90,15,4,15,1.02
2013-4-10,38.5,36.2,33.3,37.5,34.9,32.0,96,95,94,30.15,29.87,20,4,20,1.09
2013-4-11,37.9,36.4,34.9,36.4,35.0,33.1,96,95,93,29.97,29.61,26,12,26,0.31
2013-4-12,40.6,37.1,34.7,38.9,35.0,30.0,96,92,83,29.83,29.55,16,4,16,0.09
2013-4-13,39.0,35.4,31.6,32.1,29.2,26.5,87,79,66,30.03,29.81,20,5,20,0.01
2013-4-14,52.9,38.4,30.6,47.2,34.7,26.4,94,87,75,30.05,29.62,21,7,21,0.06
2013-4-15,62.2,51.1,40.4,53.2,45.9,38.6,97,84,53,29.97,29.62,30,5,30,0.42
2013-4-16,54.2,43.2,32.3,38.9,35.6,30.8,100,76,53,30.32,29.97,10,1,10,0.00
2013-4-17,44.0,40.8,38.3,42.4,37.0,32.7,95,86,73,30.34,29.88,22,6,22,0.66
2013-4-18,56.1,47.2,39.5,55.1,45.9,35.2,97,95,83,29.89,29.36,24,5,24,1.08
2013-4-19,40.1,36.1,31.7,35.7,30.2,25.0,91,79,67,29.92,29.39,28,10,28,0.03
2013-4-20,45.1,35.0,27.2,26.4,22.2,18.1,79,61,35,30.45,29.93,12,2,12,0.01
2013-4-21,49.6,40.1,30.8,32.6,28.0,23.9,84,63,46,30.55,30.31,14,4,14,0.00
2013-4-22,68.0,53.1,39.8,44.1,36.9,31.8,77,56,38,30.32,30.02,12,3,12,0.00
2013-4-23,55.2,44.3,36.9,48.9,39.6,32.6,94,84,53,30.02,29.88,12,2,12,0.32
2013-4-24,53.1,42.9,34.4,32.5,29.2,26.0,82,60,37,30.06,29.97,17,3,17,0.00
2013-4-25,51.9,44.1,36.8,37.9,33.6,30.3,92,68,46,30.32,29.99,17,4,17,0.04
2013-4-26,69.0,53.7,36.3,48.8,39.3,27.3,80,59,45,30.32,30.16,24,6,24,0.00
2013-4-27,70.3,56.9,43.7,50.2,45.6,40.7,92,68,44,30.25,30.01,14,2,14,0.00
2013-4-28,72.0,58.3,49.8,52.0,46.2,41.3,88,66,39,30.01,29.78,6,1,6,0.00
2013-4-29,71.8,60.5,49.0,58.1,52.6,47.1,95,77,51,29.86,29.73,14,2,14,0.01
2013-4-30,87.1,72.7,60.7,63.1,57.3,53.0,87,62,32,29.87,29.69,20,8,20,0.00
2013-5-1,84.8,71.1,50.5,59.7,55.6,42.1,85,60,33,30.18,29.87,14,3,14,0.00
2013-5-2,58.0,47.1,38.6,48.8,41.1,36.0,94,80,58,30.26,30.18,10,2,10,1.07
2013-5-3,49.1,43.0,37.4,48.0,41.6,35.8,99,95,90,30.21,30.02,9,2,9,0.44
2013-5-4,69.7,57.8,46.8,53.7,48.1,43.4,92,72,50,30.05,29.99,14,3,14,0.01
2013-5-5,74.0,58.9,45.3,52.4,46.2,42.2,91,65,41,30.06,30.00,10,2,10,0.00
2013-5-6,74.8,60.6,45.1,49.0,42.5,37.1,91,55,27,30.07,29.98,7,1,7,0.00
2013-5-7,77.0,63.1,46.5,51.5,45.5,38.7,90,56,30,30.06,29.98,10,1,10,0.00
2013-5-8,81.5,64.6,47.1,52.3,47.4,43.0,91,58,29,30.04,29.94,7,0,7,0.00
2013-5-9,68.6,57.3,45.0,58.9,51.2,43.6,95,81,60,29.95,29.87,12,2,12,0.36
2013-5-10,48.9,44.5,41.1,45.1,42.6,39.1,96,93,86,30.00,29.85,9,1,9,1.01
2013-5-11,53.9,45.9,38.6,49.7,38.7,30.9,100,78,48,30.04,29.80,20,2,20,0.00
2013-5-12,54.9,45.0,36.5,34.6,31.1,28.0,77,59,40,30.12,30.04,16,2,16,0.00
2013-5-13,62.7,47.9,33.3,38.9,33.9,29.6,93,62,33,30.20,29.96,10,1,10,0.00
2013-5-14,83.0,67.2,47.7,61.0,50.9,34.5,69,57,39,29.96,29.54,25,2,27,0.01
2013-5-15,79.0,69.8,55.1,62.3,52.0,46.4,81,55,35,29.82,29.54,18,1,18,0.01
2013-5-16,81.3,63.6,49.5,56.0,47.1,32.6,94,59,34,29.97,29.82,15,2,15,0.00
2013-5-17,61.7,55.9,48.5,51.9,45.6,34.6,93,70,42,30.11,29.96,10,2,10,0.61
2013-5-18,77.8,64.5,52.1,64.6,55.7,45.9,89,74,61,30.07,29.94,6,1,6,0.00
2013-5-19,84.9,71.5,58.3,68.7,62.4,55.1,91,74,51,29.94,29.64,15,2,15,0.01
2013-5-20,84.7,74.8,65.1,65.2,61.9,58.8,87,66,46,29.73,29.61,20,4,20,0.02
2013-5-21,79.8,69.6,62.4,66.3,61.4,58.3,92,77,51,29.67,29.59,21,4,21,0.04
2013-5-22,67.6,61.3,55.0,65.2,59.2,53.9,96,93,87,29.76,29.60,4,0,4,0.96
2013-5-23,57.6,50.1,41.1,54.2,45.9,36.3,96,86,63,30.33,29.76,12,1,12,0.11
2013-5-24,64.8,49.0,36.9,46.6,38.1,33.2,89,68,44,30.47,30.33,5,0,5,0.00
2013-5-25,59.9,52.1,43.5,40.9,38.1,34.2,82,60,44,30.41,30.31,4,0,4,0.00
2013-5-26,65.7,54.2,39.8,49.7,42.3,34.8,91,66,45,30.32,30.18,6,1,6,0.00
2013-5-27,54.7,52.2,50.3,52.3,48.5,41.8,96,88,67,30.18,29.91,9,1,9,0.07
2013-5-28,70.3,60.7,50.9,68.1,59.5,49.8,98,96,91,29.91,29.70,12,1,12,1.06
2013-5-29,82.3,71.7,63.2,70.3,65.6,62.3,98,83,59,29.90,29.76,13,2,13,0.00
2013-5-30,84.8,75.9,68.0,72.5,68.1,64.0,93,78,60,29.86,29.70,20,5,20,0.18
2013-5-31,75.6,67.6,62.0,68.6,63.8,60.8,97,88,66,29.81,29.67,14,3,14,0.09
2013-6-1,78.0,69.6,60.5,67.4,64.9,58.8,97,86,65,29.67,29.59,17,2,17,0.28
2013-6-2,60.7,54.5,48.0,59.3,48.8,44.3,95,81,66,30.02,29.66,12,1,12,0.00
2013-6-3,70.5,57.2,44.2,53.0,46.0,40.1,96,69,43,30.11,30.01,7,0,7,0.01
2013-6-4,70.1,59.4,50.7,53.7,47.2,42.0,85,65,48,30.17,30.07,5,1,5,0.00
2013-6-5,63.6,56.7,52.2,53.1,50.2,47.5,91,79,64,30.14,29.96,6,0,6,0.07
2013-6-6,59.4,55.7,53.1,54.6,51.4,48.3,92,86,78,29.97,29.91,2,0,2,0.01
2013-6-7,71.2,59.9,50.7,54.6,49.2,44.0,94,70,41,29.99,29.90,6,0,6,0.06
2013-6-8,73.3,60.1,47.6,56.1,50.4,45.7,95,73,44,30.01,29.92,8,0,8,0.00
2013-6-9,79.0,66.9,55.2,62.9,57.0,49.1,85,71,54,30.02,29.81,12,1,12,0.00
2013-6-10,79.5,69.0,60.5,67.4,63.1,57.8,94,82,63,29.83,29.75,5,0,5,0.00
2013-6-11,84.7,71.7,59.5,68.6,64.2,58.0,96,79,54,29.90,29.77,12,1,12,0.00
2013-6-12,76.0,68.4,62.3,67.9,64.8,61.1,96,89,73,29.88,29.59,7,1,7,1.11
2013-6-13,76.3,64.9,56.4,63.9,58.3,52.8,97,81,56,30.06,29.66,10,0,10,0.00
2013-6-14,78.3,64.7,52.3,62.1,54.4,49.0,93,71,49,30.14,29.99,7,0,7,0.00
2013-6-15,80.0,67.2,55.5,71.3,62.2,48.8,96,84,67,30.07,29.80,12,1,12,0.72
2013-6-16,80.2,69.0,65.5,70.6,66.2,63.2,97,92,59,29.87,29.81,5,1,5,0.01
2013-6-17,86.8,70.0,59.1,68.1,60.4,53.6,93,74,45,29.95,29.83,2,0,10,0.01
2013-6-18,71.8,61.1,52.5,58.5,52.9,45.2,89,75,51,30.09,29.95,6,0,6,0.00
2013-6-19,76.8,63.4,48.1,56.6,49.9,43.9,96,64,42,30.16,30.07,6,1,6,0.00
2013-6-20,86.9,71.2,55.2,66.1,56.1,39.9,73,59,41,30.13,30.03,10,1,10,0.00
2013-6-21,74.0,69.8,65.5,69.5,65.0,56.9,96,85,66,30.10,29.82,16,1,16,0.63
2013-6-22,78.9,71.1,65.6,73.4,68.4,64.4,97,91,80,30.10,29.90,13,1,16,0.15
2013-6-23,86.8,74.7,64.1,76.8,68.9,62.6,96,83,68,29.99,29.84,15,2,15,0.02
2013-6-24,80.1,72.6,67.1,71.6,68.3,65.5,96,87,69,29.99,29.80,14,2,14,0.01
2013-6-25,82.3,71.5,65.3,76.3,69.2,64.3,98,93,77,29.92,29.77,10,1,10,0.02
2013-6-26,78.8,70.7,66.9,72.5,68.6,66.0,98,93,76,29.79,29.68,12,0,12,0.01
2013-6-27,86.1,73.4,66.1,76.7,69.7,65.1,98,89,61,29.76,29.65,9,0,9,0.01
2013-6-28,78.0,69.7,63.5,67.8,64.5,62.3,96,84,64,29.69,29.58,12,1,12,0.01
2013-6-29,74.7,66.0,62.8,67.0,61.5,56.3,97,86,60,29.81,29.59,6,1,6,0.38
2013-6-30,79.1,67.7,58.8,63.6,55.8,48.9,84,67,46,30.02,29.81,6,1,6,0.00
2013-7-1,59.1,57.0,55.5,51.8,50.1,48.8,83,78,71,30.06,30.01,1,0,1,0.00
2013-7-2,75.2,63.8,55.8,57.4,52.9,48.1,92,69,44,30.10,30.06,1,0,5,0.00
2013-7-3,70.9,64.3,59.1,64.2,60.3,52.1,94,87,73,30.07,30.01,2,0,3,0.01
2013-7-4,83.5,71.4,59.8,66.1,62.4,57.8,96,76,47,30.08,29.99,9,1,9,0.00
2013-7-5,83.5,69.4,61.8,69.5,63.8,59.5,94,84,57,30.05,30.01,8,1,8,0.00
2013-7-6,86.8,74.2,62.3,69.2,64.7,60.6,95,74,45,30.02,29.92,7,0,10,0.00
2013-7-7,87.0,75.8,66.1,74.6,69.8,64.3,96,83,60,29.96,29.89,6,1,6,0.00
2013-7-8,86.5,76.8,71.3,78.7,72.7,69.7,96,87,74,29.96,29.87,14,2,14,0.06
2013-7-9,82.1,73.8,67.8,76.7,71.4,66.3,97,92,81,29.96,29.79,15,1,17,0.33
2013-7-10,78.5,72.9,63.2,73.5,65.2,58.3,97,78,55,29.99,29.80,10,1,10,0.00
2013-7-11,82.1,68.1,56.9,64.2,59.1,53.4,96,75,44,30.10,29.99,4,0,4,0.00
2013-7-12,84.5,69.1,54.4,64.6,57.6,50.2,96,70,36,30.15,30.06,7,0,7,0.00
2013-7-13,83.7,71.4,58.5,67.4,60.9,55.2,94,71,49,30.15,30.08,9,1,9,0.00
2013-7-14,87.7,75.4,63.1,74.1,67.1,59.5,94,77,57,30.20,30.14,5,0,5,0.00
2013-7-15,90.7,77.0,67.1,78.3,71.7,65.0,96,84,59,30.24,30.19,6,0,6,0.04
2013-7-16,92.1,81.3,72.0,80.1,75.1,70.5,96,83,62,30.25,30.19,9,1,9,0.00
2013-7-17,93.3,81.7,72.9,79.5,74.9,71.3,96,81,58,30.26,30.12,11,1,11,0.01
2013-7-18,93.2,82.2,72.0,78.7,74.3,70.5,96,79,56,30.14,29.87,20,2,20,0.00
2013-7-19,91.0,81.6,71.4,77.2,73.2,66.0,89,76,60,29.87,29.69,21,5,21,0.00
2013-7-20,85.5,71.3,61.6,69.1,63.8,58.3,94,79,53,29.95,29.78,7,0,7,0.00
2013-7-21,83.5,68.3,60.6,70.2,62.4,56.5,96,82,61,29.96,29.84,7,0,7,0.87
2013-7-22,85.8,73.7,62.6,72.4,67.9,61.4,97,84,59,29.87,29.64,13,1,13,0.02
2013-7-23,74.2,66.4,58.7,65.6,60.5,54.5,96,82,60,29.98,29.67,4,0,6,0.06
2013-7-24,75.6,62.9,53.3,58.3,54.5,51.6,95,76,50,30.07,29.98,0,0,0,0.00
2013-7-25,79.3,66.1,52.2,65.1,58.9,50.4,95,79,56,30.08,29.95,9,1,9,0.01
2013-7-26,70.2,64.7,58.1,68.9,62.8,57.0,97,94,86,29.96,29.83,12,1,12,0.73
2013-7-27,60.4,56.4,52.4,57.7,52.0,49.6,97,86,69,29.93,29.86,12,1,12,0.01
2013-7-28,69.3,58.8,51.8,57.7,53.0,50.1,94,82,63,29.99,29.84,12,2,12,0.00
2013-7-29,75.9,63.0,52.9,61.5,56.5,50.8,94,80,59,30.18,29.99,1,0,1,0.00
2013-7-30,75.8,64.7,55.6,65.0,60.5,53.9,96,87,64,30.18,30.08,1,0,1,0.43
2013-7-31,77.8,65.8,59.5,70.5,63.6,58.1,97,93,73,30.08,29.93,9,0,9,0.26
2013-8-1,77.9,66.2,56.2,66.2,59.4,55.1,97,81,51,29.98,29.90,12,0,12,0.00
2013-8-2,80.2,68.9,59.3,69.8,62.9,56.9,97,82,58,29.94,29.82,10,0,10,0.09
2013-8-3,78.1,66.1,55.0,62.8,56.9,53.0,95,74,49,30.11,29.94,0,0,0,0.00
2013-8-4,77.8,64.5,55.0,61.6,56.9,52.7,96,78,49,30.21,30.11,0,0,0,0.00
2013-8-5,73.0,64.0,56.7,65.1,60.0,54.4,93,87,74,30.12,29.85,10,0,10,0.05
2013-8-6,82.7,72.1,63.4,72.8,67.5,61.9,97,86,67,29.86,29.76,10,1,10,0.00
2013-8-7,81.8,73.6,63.5,72.5,67.9,61.1,97,84,61,29.94,29.73,7,1,7,0.00
2013-8-8,79.2,68.2,58.8,62.7,58.3,51.9,96,73,46,30.03,29.94,5,0,5,0.00
2013-8-9,79.2,67.4,54.9,68.2,60.2,52.0,92,78,65,30.04,29.95,9,1,9,0.00
2013-8-10,78.5,65.6,54.2,63.2,58.2,52.5,96,79,50,30.13,30.04,7,0,7,0.01
2013-8-11,73.4,63.7,54.2,66.4,60.9,52.6,96,91,75,30.13,30.01,6,0,6,0.04
2013-8-12,80.6,69.8,62.8,70.6,65.3,58.6,97,86,62,30.02,29.87,4,0,4,0.55
2013-8-13,71.7,61.1,52.0,59.2,51.8,47.8,91,73,53,30.17,29.96,5,0,5,0.00
2013-8-14,73.5,60.7,48.6,58.8,52.1,47.0,96,76,49,30.23,30.12,4,0,4,0.00
2013-8-15,78.0,65.3,54.9,62.0,56.6,52.1,91,76,47,30.14,30.07,6,0,6,0.00
2013-8-16,82.2,66.0,53.5,63.5,57.6,51.8,96,77,49,30.18,30.11,4,0,4,0.00
2013-8-17,82.0,67.1,53.4,66.0,57.7,51.7,96,75,45,30.25,30.16,7,0,7,0.00
2013-8-18,82.2,67.5,53.1,64.8,58.6,51.4,96,76,49,30.21,30.08,6,0,6,0.00
2013-8-19,81.8,68.3,55.8,68.1,61.7,53.8,95,81,55,30.10,30.00,10,1,10,0.01
2013-8-20,87.0,73.2,61.7,70.8,65.7,60.3,96,79,53,30.07,29.98,13,2,13,0.00
2013-8-21,88.6,77.3,67.7,74.1,69.1,64.3,90,77,57,30.01,29.88,15,2,15,0.00
2013-8-22,76.1,70.2,61.6,73.2,67.7,60.1,97,92,81,30.11,29.95,15,0,15,1.70
2013-8-23,81.9,68.2,57.0,68.1,60.6,55.6,97,79,49,30.18,30.10,5,0,5,0.01
2013-8-24,84.0,69.9,56.5,71.7,62.8,55.1,97,80,58,30.24,30.15,9,1,9,0.00
2013-8-25,88.5,76.2,66.1,74.0,66.6,58.6,91,74,50,30.18,30.06,17,3,17,0.00
2013-8-26,89.4,77.4,69.2,78.8,71.4,65.5,91,82,67,30.11,29.93,12,2,12,0.00
2013-8-27,93.2,81.7,72.2,79.8,74.5,69.8,94,80,60,29.93,29.76,15,2,15,0.00
2013-8-28,85.2,75.9,67.0,75.0,70.9,64.5,93,85,67,30.01,29.78,4,0,4,0.00
2013-8-29,88.7,75.1,63.0,74.8,68.3,61.4,97,81,57,30.06,29.94,6,0,6,0.00
2013-8-30,92.4,74.7,66.2,80.7,70.9,64.1,98,89,59,29.96,29.73,10,1,10,1.67
2013-8-31,78.6,69.2,63.6,70.7,65.8,62.1,96,89,73,29.85,29.77,4,0,2,0.00
2013-9-1,83.5,69.8,61.3,74.6,66.3,59.9,97,89,72,29.81,29.68,9,1,9,0.00
2013-9-2,70.7,64.4,60.2,61.9,59.1,56.2,95,84,68,29.99,29.80,4,0,4,0.00
2013-9-3,74.3,65.9,54.5,60.5,56.9,53.3,96,73,54,30.08,29.99,6,1,6,0.00
2013-9-4,82.1,71.0,57.8,68.7,63.4,54.9,95,78,58,30.10,30.03,7,1,7,0.00
2013-9-5,74.5,65.3,60.2,63.1,56.4,51.5,94,74,52,30.26,30.10,4,0,4,0.00
2013-9-6,85.5,70.3,60.2,71.6,61.3,51.9,92,74,60,30.22,29.95,9,1,9,0.00
2013-9-7,81.5,72.0,65.3,75.2,68.3,63.2,95,88,73,29.97,29.86,10,1,10,0.11
2013-9-8,70.8,67.2,63.9,67.2,64.0,61.1,92,89,81,30.04,29.94,6,0,6,0.00
2013-9-9,90.6,77.1,66.3,79.3,71.9,63.7,96,85,66,29.96,29.75,10,1,10,0.00
2013-9-10,92.9,80.4,69.9,73.2,68.5,65.5,86,69,44,29.91,29.78,15,3,15,0.00
2013-9-11,82.2,72.9,65.7,71.0,67.4,63.6,94,83,65,30.05,29.91,10,1,10,0.00
2013-9-12,75.3,65.5,57.6,65.2,58.9,46.8,96,81,52,30.12,29.95,15,0,15,0.01
2013-9-13,65.0,56.1,53.3,49.1,46.0,43.8,76,70,48,30.20,30.12,5,0,5,0.00
2013-9-14,71.4,65.4,58.7,53.8,50.6,47.4,67,59,47,30.17,29.98,10,1,10,0.00
2013-9-15,63.8,63.8,63.8,51.4,51.4,51.4,64,64,64,30.23,29.96,0,0,0,0.00
2013-9-16,67.3,61.5,51.9,52.3,49.7,46.8,84,66,51,30.39,30.22,4,0,4,0.00
2013-9-17,70.1,61.3,56.9,56.4,52.0,47.6,87,72,59,30.33,30.09,10,0,10,0.00
2013-9-18,78.8,68.6,59.9,69.4,62.1,54.9,95,80,70,30.09,29.87,13,1,13,0.00
2013-9-19,83.5,75.7,69.6,76.1,70.9,64.1,97,85,74,29.90,29.69,13,1,13,0.01
2013-9-20,77.6,71.0,63.6,73.4,65.5,55.4,97,83,74,29.80,29.67,12,2,12,0.00
2013-9-21,56.3,56.3,56.3,49.2,49.2,49.2,77,77,77,29.96,29.94,0,0,0,0.00
2013-9-22,67.3,58.5,49.6,49.8,48.1,42.3,89,69,48,30.09,29.96,4,0,4,0.00
2013-9-23,68.3,59.9,56.1,54.8,49.7,46.0,87,69,58,30.12,30.04,6,0,6,0.00
2013-9-24,71.5,62.1,57.6,57.2,51.9,49.2,92,70,54,30.06,29.95,6,0,9,0.00
2013-9-25,70.8,63.3,57.1,59.3,53.8,52.3,97,71,56,29.99,29.94,5,0,5,0.00
2013-9-26,77.7,67.2,59.6,62.7,53.9,48.8,97,64,45,30.07,29.97,9,0,9,0.00
2013-9-27,81.5,72.1,61.2,60.8,54.5,42.9,84,54,45,30.14,30.02,10,1,10,0.00
2013-9-28,80.5,75.1,64.0,64.3,59.9,56.5,78,59,54,30.04,29.80,18,2,20,0.00
2013-9-29,77.0,67.4,48.0,62.0,54.2,44.7,97,64,40,30.04,29.92,4,0,4,0.00
2013-9-30,74.5,57.8,43.9,55.8,48.5,42.3,96,74,46,30.00,29.83,12,1,12,0.00
2013-10-1,80.9,66.0,54.2,66.1,59.4,48.6,95,81,57,29.95,29.82,16,3,16,0.00
2013-10-2,79.0,61.3,47.3,57.1,49.1,40.8,96,70,30,30.11,29.95,5,0,5,0.00
2013-10-3,75.3,66.1,59.1,69.4,62.9,48.5,96,90,68,29.98,29.82,12,1,12,0.13
2013-10-4,66.5,63.4,60.1,65.5,62.2,59.2,97,96,94,30.01,29.85,6,0,6,0.18
2013-10-5,62.7,62.5,60.5,62.0,61.9,59.6,98,98,97,29.95,29.73,12,0,12,0.97
2013-10-6,62.9,53.3,46.3,62.0,46.9,42.3,98,80,54,29.75,28.84,16,2,16,0.00
2013-10-7,67.1,52.5,45.2,51.8,47.0,43.0,96,83,52,30.09,29.71,12,2,12,0.04
2013-10-8,76.5,57.4,41.9,55.5,48.6,40.6,97,76,40,30.17,30.09,12,1,12,0.00
2013-10-9,74.1,59.2,49.7,54.5,49.3,45.3,92,72,38,30.22,30.12,9,1,9,0.00
2013-10-10,75.0,59.4,47.4,57.0,51.3,46.0,96,77,44,30.17,30.04,9,0,9,0.00
2013-10-11,75.8,62.5,54.3,60.8,55.2,51.5,94,79,55,30.05,29.93,12,1,12,0.00
2013-10-12,68.5,60.1,46.2,62.2,53.6,40.9,94,79,52,30.15,29.90,12,2,12,0.04
2013-10-13,62.8,48.3,38.5,46.1,40.8,36.7,95,77,45,30.42,30.15,6,0,6,0.00
2013-10-14,61.6,47.6,35.4,50.7,41.8,33.8,96,82,56,30.45,30.15,10,1,10,0.00
2013-10-15,59.6,53.2,46.3,58.5,50.4,43.1,96,90,84,30.15,29.73,15,2,17,0.31
2013-10-16,53.2,49.4,45.0,51.0,47.3,42.3,95,92,89,29.93,29.78,12,2,12,0.02
2013-10-17,52.0,45.8,39.4,47.3,43.7,37.8,96,93,77,29.93,29.82,12,0,12,0.11
2013-10-18,49.1,42.6,36.4,44.1,39.5,34.8,96,89,79,29.96,29.82,17,2,17,0.00
2013-10-19,50.6,42.0,35.6,42.3,37.7,33.8,94,86,59,29.93,29.75,17,2,17,0.04
2013-10-20,50.3,41.5,31.6,46.7,38.6,30.2,96,90,63,29.89,29.73,5,0,5,0.08
2013-10-21,45.3,39.8,31.3,44.0,34.0,25.9,95,80,66,29.96,29.76,13,3,13,0.00
2013-10-22,45.2,35.5,27.4,33.7,29.1,24.1,93,78,57,30.00,29.92,7,1,7,0.00
2013-10-23,44.5,36.0,26.7,31.7,28.5,23.9,92,75,51,30.04,29.95,12,1,12,0.00
2013-10-24,45.2,35.9,29.7,32.1,28.8,25.6,88,76,57,30.32,30.03,10,1,10,0.00
2013-10-25,29.9,26.7,24.8,25.6,23.4,22.3,90,88,84,30.37,30.32,0,0,0,0.00
2013-10-26,52.1,45.6,39.6,38.7,32.8,29.0,75,61,49,30.07,29.80,12,2,27,0.00
2013-10-27,54.7,40.1,28.2,35.3,30.9,25.4,93,72,43,30.07,29.92,17,2,17,0.00
2013-10-28,44.2,41.0,34.5,36.8,34.7,30.7,88,78,70,30.38,30.06,7,1,7,0.00
2013-10-29,51.4,43.4,35.5,43.3,38.6,29.6,94,83,73,30.42,30.16,9,0,9,0.00
2013-10-30,55.2,50.3,44.0,53.6,48.5,42.3,96,94,90,30.16,29.75,10,0,10,0.00
2013-10-31,61.0,56.0,43.5,60.1,55.1,42.4,97,97,96,29.75,29.21,17,2,17,1.13
2013-11-1,46.0,43.5,42.0,43.8,41.6,39.3,96,93,90,29.74,29.31,17,3,17,0.07
2013-11-2,44.2,40.6,38.7,42.1,39.1,37.3,97,94,88,30.17,29.74,5,0,5,0.05
2013-11-3,52.4,40.9,29.7,41.6,35.9,28.4,97,84,54,30.33,30.17,12,1,12,0.01
2013-11-4,55.1,48.8,42.4,45.9,41.3,37.6,88,76,63,30.26,30.06,18,3,18,0.00
2013-11-5,54.5,50.9,47.1,50.4,47.7,44.3,95,89,79,30.25,29.89,17,1,17,0.10
2013-11-6,55.1,43.5,30.1,54.1,41.6,27.3,97,93,84,30.17,29.71,20,3,20,0.52
2013-11-7,42.0,33.9,26.3,35.4,29.9,24.3,93,85,73,30.26,30.17,10,1,10,0.00
2013-11-8,46.8,36.5,24.9,35.6,30.6,23.2,100,80,65,30.34,29.86,17,2,17,0.00
2013-11-9,53.6,46.6,40.0,42.2,37.6,28.9,82,71,61,30.07,29.77,28,7,28,0.00
2013-11-10,48.6,42.0,37.2,33.9,31.9,29.5,76,68,52,30.33,30.07,15,2,15,0.00
2013-11-11,43.3,33.6,24.2,35.8,27.7,17.5,93,79,71,30.57,30.06,9,2,9,0.09
2013-11-12,32.4,24.5,19.4,21.4,17.4,14.8,89,75,57,30.75,30.57,12,1,12,0.01
2013-11-13,40.7,29.6,17.8,22.6,18.8,13.8,91,65,44,30.61,30.12,25,7,25,0.00
2013-11-14,46.2,38.0,31.4,31.8,26.8,20.6,73,64,54,30.11,29.91,14,4,14,0.00
2013-11-15,53.9,43.0,36.0,37.1,32.9,28.7,87,68,51,29.96,29.90,8,2,8,0.00
2013-11-16,58.4,49.2,38.1,55.6,46.8,34.8,95,91,84,29.92,29.51,25,5,25,0.07
2013-11-17,64.0,51.6,39.8,62.0,49.4,35.5,97,92,83,29.66,29.05,23,5,23,0.92
2013-11-18,40.4,34.0,26.7,36.1,28.2,22.8,85,79,69,30.28,29.66,25,4,25,0.00
2013-11-19,39.9,29.7,20.0,30.7,24.6,17.9,93,82,58,30.41,30.27,5,0,6,0.00
2013-11-20,42.1,35.5,31.2,30.8,29.0,27.5,92,78,59,30.31,30.13,14,2,14,0.00
2013-11-21,44.4,42.0,39.1,40.9,38.8,36.6,95,88,85,30.26,29.28,4,0,5,0.00
2013-11-22,39.1,31.4,23.0,36.6,27.4,18.6,94,85,69,30.50,30.25,10,1,10,0.05
2013-11-23,24.9,18.7,12.7,19.9,10.4,5.8,84,70,59,30.76,30.44,12,2,12,0.00
2013-11-24,26.4,17.9,9.3,10.6,7.6,5.2,93,65,44,30.75,30.33,20,4,20,0.00
2013-11-25,28.8,25.4,21.1,26.0,20.4,9.9,93,82,59,30.33,30.06,15,6,15,0.00
2013-11-26,30.8,25.2,13.2,27.4,19.1,6.2,90,78,60,30.25,30.05,9,1,9,0.02
2013-11-27,26.1,17.3,7.8,17.0,10.9,4.1,86,76,64,30.32,30.23,6,1,6,0.04
2013-11-28,28.4,22.2,9.6,18.9,15.3,6.5,87,75,65,30.56,30.23,16,1,16,0.00
2013-11-29,30.8,19.4,4.3,23.0,13.7,1.2,90,79,59,30.70,30.42,5,0,5,0.00
2013-11-30,45.0,33.8,27.6,33.7,27.6,22.0,92,78,63,30.42,30.06,12,2,12,0.02
2013-12-1,40.4,31.4,26.7,30.8,27.2,23.9,92,85,65,30.16,30.02,4,0,5,0.00
2013-12-2,39.7,32.2,21.7,34.8,28.5,19.9,95,86,73,30.01,29.80,12,2,12,0.04
2013-12-3,39.7,37.6,33.8,38.9,36.6,32.3,100,96,94,29.80,29.70,10,4,10,0.11
2013-12-4,38.4,38.1,37.9,37.5,37.3,37.1,97,97,97,29.78,29.48,30,4,30,0.02
2013-12-5,38.1,25.2,16.6,37.3,19.6,11.2,97,79,68,30.31,29.63,22,8,30,0.01
2013-12-6,18.1,13.0,8.5,11.2,6.7,2.7,83,76,65,30.62,30.29,15,1,15,0.00
2013-12-7,16.0,8.4,2.4,6.3,2.2,-1.8,93,76,62,30.76,30.62,10,1,10,0.00
2013-12-8,24.3,17.5,6.1,22.6,13.7,2.0,94,85,68,30.69,29.99,10,1,10,0.00
2013-12-9,23.3,10.6,-5.4,21.7,6.3,-9.7,94,83,68,30.25,29.96,24,5,24,0.00
2013-12-10,19.0,7.6,-9.7,12.6,2.2,-13.8,93,78,68,30.34,30.01,24,5,24,0.00
2013-12-11,13.4,8.7,-7.1,10.7,4.1,-12.0,89,81,64,30.61,30.32,14,2,14,0.00
2013-12-12,15.5,7.6,-5.7,9.7,1.6,-10.5,82,76,67,30.59,30.26,16,3,16,0.00
2013-12-13,25.0,19.0,10.0,20.2,15.2,6.4,93,85,79,30.27,30.21,7,1,9,0.00
2013-12-14,27.2,23.6,18.9,24.7,21.2,16.5,93,90,87,30.22,29.97,9,1,9,0.00
2013-12-15,20.2,10.6,0.9,18.0,4.7,-4.5,91,77,66,30.20,29.94,13,1,13,0.00
2013-12-16,17.7,7.6,-6.6,11.5,1.8,-11.1,89,77,51,30.24,30.08,10,1,10,0.00
2013-12-17,32.8,23.9,13.8,26.5,19.4,11.3,92,83,72,30.10,29.95,13,4,13,0.01
2013-12-18,34.3,23.1,7.8,24.7,15.7,4.5,88,74,50,30.16,29.81,14,3,15,0.00
2013-12-19,32.6,28.2,20.0,30.5,25.4,17.9,94,89,81,30.01,29.83,14,2,14,0.00
2013-12-20,30.4,26.7,23.9,28.9,25.0,22.3,94,93,92,29.92,29.82,6,0,6,0.00
2013-12-21,31.1,27.6,23.6,30.1,26.3,22.1,96,95,94,29.91,29.70,7,0,7,0.00
2013-12-22,30.5,24.7,18.1,29.2,22.9,15.9,95,93,89,30.15,29.70,7,0,7,0.00
2013-12-23,19.4,10.5,-1.1,17.6,7.7,-5.0,93,88,83,30.48,30.15,0,0,0,0.00
2013-12-24,12.5,2.7,-10.7,9.2,-1.0,-14.4,93,84,77,30.63,30.40,1,0,1,0.00
2013-12-25,22.5,19.1,12.1,20.5,16.6,9.2,92,90,87,30.40,30.11,7,1,7,0.00
2013-12-26,24.8,19.5,6.8,22.1,16.5,4.0,92,88,83,30.30,30.11,12,1,12,0.00
2013-12-27,36.5,26.3,8.8,31.2,23.1,6.5,94,88,81,30.31,30.04,13,3,13,0.00
2013-12-28,43.2,33.2,22.9,35.3,29.0,20.7,94,85,72,30.08,29.86,16,2,16,0.10
2013-12-29,34.9,19.7,-0.8,31.1,14.7,-6.3,90,80,71,30.27,29.77,14,2,14,0.10
2013-12-30,2.6,-2.9,-13.6,-2.1,-8.9,-17.8,84,75,59,30.42,30.27,4,0,4,0.00
2013-12-31,7.2,3.6,-2.9,3.5,-0.8,-6.8,86,82,74,30.44,30.28,12,2,12,0.00
2014-1-1,15.0,7.7,2.4,10.5,2.5,-5.4,84,79,69,30.44,30.34,12,0,12,0.00
2014-1-2,12.3,5.9,-13.2,5.5,0.6,-17.7,90,79,69,30.51,30.31,7,1,7,0.00